sensor_id;sensor_type;location;lat;lon;timestamp;P1;durP1;ratioP1;P2;durP2;ratioP2
33826;SDS011;20128;45.582;5.298;2023-08-30T00:00:19;2.70;;;1.58;;
33826;SDS011;20128;45.582;5.298;2023-08-30T00:02:48;4.28;;;1.48;;
33826;SDS011;20128;45.582;5.298;2023-08-30T00:05:13;4.07;;;1.50;;
33826;SDS011;20128;45.582;5.298;2023-08-30T00:07:39;7.10;;;1.85;;
33826;SDS011;20128;45.582;5.298;2023-08-30T00:10:06;2.22;;;1.55;;
33826;SDS011;20128;45.582;5.298;2023-08-30T00:12:32;2.80;;;1.40;;
33826;SDS011;20128;45.582;5.298;2023-08-30T00:14:58;1.83;;;1.33;;
33826;SDS011;20128;45.582;5.298;2023-08-30T00:17:25;3.50;;;1.90;;
33826;SDS011;20128;45.582;5.298;2023-08-30T00:19:50;2.33;;;1.75;;
33826;SDS011;20128;45.582;5.298;2023-08-30T00:22:17;6.15;;;2.08;;
33826;SDS011;20128;45.582;5.298;2023-08-30T00:24:43;3.30;;;1.73;;
33826;SDS011;20128;45.582;5.298;2023-08-30T00:27:10;3.45;;;1.25;;
33826;SDS011;20128;45.582;5.298;2023-08-30T00:29:36;6.15;;;2.00;;
33826;SDS011;20128;45.582;5.298;2023-08-30T00:32:01;4.32;;;1.63;;
33826;SDS011;20128;45.582;5.298;2023-08-30T00:34:27;3.83;;;2.25;;
33826;SDS011;20128;45.582;5.298;2023-08-30T00:36:52;2.72;;;1.50;;
33826;SDS011;20128;45.582;5.298;2023-08-30T00:39:18;4.20;;;2.03;;
33826;SDS011;20128;45.582;5.298;2023-08-30T00:41:44;3.08;;;1.30;;
33826;SDS011;20128;45.582;5.298;2023-08-30T00:44:09;3.08;;;1.55;;
33826;SDS011;20128;45.582;5.298;2023-08-30T00:46:35;3.17;;;1.60;;
33826;SDS011;20128;45.582;5.298;2023-08-30T00:49:02;3.10;;;1.45;;
33826;SDS011;20128;45.582;5.298;2023-08-30T00:51:29;1.85;;;1.33;;
33826;SDS011;20128;45.582;5.298;2023-08-30T00:53:55;4.43;;;2.03;;
33826;SDS011;20128;45.582;5.298;2023-08-30T00:56:21;3.45;;;1.88;;
33826;SDS011;20128;45.582;5.298;2023-08-30T00:58:48;3.00;;;2.30;;
33826;SDS011;20128;45.582;5.298;2023-08-30T01:01:15;2.83;;;1.63;;
33826;SDS011;20128;45.582;5.298;2023-08-30T01:03:41;1.90;;;1.40;;
33826;SDS011;20128;45.582;5.298;2023-08-30T01:06:07;4.88;;;1.67;;
33826;SDS011;20128;45.582;5.298;2023-08-30T01:08:33;7.82;;;1.75;;
33826;SDS011;20128;45.582;5.298;2023-08-30T01:11:21;2.78;;;1.60;;
33826;SDS011;20128;45.582;5.298;2023-08-30T01:14:07;3.30;;;1.30;;
33826;SDS011;20128;45.582;5.298;2023-08-30T01:16:35;3.58;;;1.55;;
33826;SDS011;20128;45.582;5.298;2023-08-30T01:19:13;8.57;;;2.17;;
33826;SDS011;20128;45.582;5.298;2023-08-30T01:22:08;5.57;;;1.88;;
33826;SDS011;20128;45.582;5.298;2023-08-30T01:24:44;5.95;;;1.40;;
33826;SDS011;20128;45.582;5.298;2023-08-30T01:27:15;7.35;;;1.77;;
33826;SDS011;20128;45.582;5.298;2023-08-30T01:29:43;4.60;;;2.10;;
33826;SDS011;20128;45.582;5.298;2023-08-30T01:32:10;1.85;;;1.42;;
33826;SDS011;20128;45.582;5.298;2023-08-30T01:34:37;2.50;;;1.30;;
33826;SDS011;20128;45.582;5.298;2023-08-30T01:37:05;3.30;;;1.90;;
33826;SDS011;20128;45.582;5.298;2023-08-30T01:39:33;3.35;;;1.60;;
33826;SDS011;20128;45.582;5.298;2023-08-30T01:41:59;5.20;;;1.60;;
33826;SDS011;20128;45.582;5.298;2023-08-30T01:44:27;4.25;;;1.50;;
33826;SDS011;20128;45.582;5.298;2023-08-30T01:46:54;6.90;;;1.80;;
33826;SDS011;20128;45.582;5.298;2023-08-30T01:49:21;5.70;;;1.52;;
33826;SDS011;20128;45.582;5.298;2023-08-30T01:51:47;2.55;;;1.45;;
33826;SDS011;20128;45.582;5.298;2023-08-30T01:54:17;3.85;;;1.88;;
33826;SDS011;20128;45.582;5.298;2023-08-30T01:56:43;5.50;;;1.90;;
33826;SDS011;20128;45.582;5.298;2023-08-30T01:59:12;4.22;;;1.70;;
33826;SDS011;20128;45.582;5.298;2023-08-30T02:01:38;3.08;;;1.60;;
33826;SDS011;20128;45.582;5.298;2023-08-30T02:04:04;3.75;;;1.40;;
33826;SDS011;20128;45.582;5.298;2023-08-30T02:06:54;6.90;;;2.30;;
33826;SDS011;20128;45.582;5.298;2023-08-30T02:12:10;8.35;;;1.83;;
33826;SDS011;20128;45.582;5.298;2023-08-30T02:14:39;4.85;;;1.65;;
33826;SDS011;20128;45.582;5.298;2023-08-30T02:17:09;4.65;;;1.65;;
33826;SDS011;20128;45.582;5.298;2023-08-30T02:19:37;3.20;;;1.75;;
33826;SDS011;20128;45.582;5.298;2023-08-30T02:22:02;4.50;;;1.38;;
33826;SDS011;20128;45.582;5.298;2023-08-30T02:24:28;4.85;;;1.70;;
33826;SDS011;20128;45.582;5.298;2023-08-30T02:26:54;6.78;;;1.90;;
33826;SDS011;20128;45.582;5.298;2023-08-30T02:29:19;4.10;;;1.70;;
33826;SDS011;20128;45.582;5.298;2023-08-30T02:31:45;4.75;;;1.75;;
33826;SDS011;20128;45.582;5.298;2023-08-30T02:34:10;3.80;;;1.48;;
33826;SDS011;20128;45.582;5.298;2023-08-30T02:36:36;3.25;;;1.60;;
33826;SDS011;20128;45.582;5.298;2023-08-30T02:39:02;6.82;;;1.92;;
33826;SDS011;20128;45.582;5.298;2023-08-30T02:41:28;1.92;;;1.45;;
33826;SDS011;20128;45.582;5.298;2023-08-30T02:43:54;1.85;;;1.45;;
33826;SDS011;20128;45.582;5.298;2023-08-30T02:46:19;9.13;;;1.90;;
33826;SDS011;20128;45.582;5.298;2023-08-30T02:48:45;3.97;;;1.70;;
33826;SDS011;20128;45.582;5.298;2023-08-30T02:51:11;1.90;;;1.50;;
33826;SDS011;20128;45.582;5.298;2023-08-30T02:53:36;3.15;;;1.58;;
33826;SDS011;20128;45.582;5.298;2023-08-30T02:56:02;5.68;;;1.55;;
33826;SDS011;20128;45.582;5.298;2023-08-30T02:58:27;3.97;;;1.90;;
33826;SDS011;20128;45.582;5.298;2023-08-30T03:00:53;7.28;;;1.98;;
33826;SDS011;20128;45.582;5.298;2023-08-30T03:03:19;4.10;;;1.67;;
33826;SDS011;20128;45.582;5.298;2023-08-30T03:05:44;3.33;;;1.90;;
33826;SDS011;20128;45.582;5.298;2023-08-30T03:08:10;4.15;;;2.22;;
33826;SDS011;20128;45.582;5.298;2023-08-30T03:10:35;2.22;;;1.60;;
33826;SDS011;20128;45.582;5.298;2023-08-30T03:13:01;4.00;;;1.58;;
33826;SDS011;20128;45.582;5.298;2023-08-30T03:15:27;4.95;;;2.03;;
33826;SDS011;20128;45.582;5.298;2023-08-30T03:17:52;5.38;;;2.00;;
33826;SDS011;20128;45.582;5.298;2023-08-30T03:20:18;5.82;;;1.77;;
33826;SDS011;20128;45.582;5.298;2023-08-30T03:22:44;3.28;;;1.80;;
33826;SDS011;20128;45.582;5.298;2023-08-30T03:25:09;4.70;;;2.15;;
33826;SDS011;20128;45.582;5.298;2023-08-30T03:27:35;6.95;;;2.50;;
33826;SDS011;20128;45.582;5.298;2023-08-30T03:30:01;2.25;;;1.55;;
33826;SDS011;20128;45.582;5.298;2023-08-30T03:32:28;6.20;;;1.88;;
33826;SDS011;20128;45.582;5.298;2023-08-30T03:34:54;3.72;;;2.08;;
33826;SDS011;20128;45.582;5.298;2023-08-30T03:37:20;2.67;;;1.63;;
33826;SDS011;20128;45.582;5.298;2023-08-30T03:39:45;7.03;;;2.10;;
33826;SDS011;20128;45.582;5.298;2023-08-30T03:42:11;5.20;;;2.63;;
33826;SDS011;20128;45.582;5.298;2023-08-30T03:44:37;3.70;;;1.92;;
33826;SDS011;20128;45.582;5.298;2023-08-30T03:47:03;2.67;;;1.92;;
33826;SDS011;20128;45.582;5.298;2023-08-30T03:49:29;4.07;;;1.98;;
33826;SDS011;20128;45.582;5.298;2023-08-30T03:51:55;3.65;;;1.60;;
33826;SDS011;20128;45.582;5.298;2023-08-30T03:54:21;8.68;;;2.20;;
33826;SDS011;20128;45.582;5.298;2023-08-30T03:56:46;4.15;;;2.28;;
33826;SDS011;20128;45.582;5.298;2023-08-30T03:59:12;4.65;;;2.00;;
33826;SDS011;20128;45.582;5.298;2023-08-30T04:01:38;3.80;;;1.50;;
33826;SDS011;20128;45.582;5.298;2023-08-30T04:04:03;2.58;;;1.55;;
33826;SDS011;20128;45.582;5.298;2023-08-30T04:06:30;4.85;;;1.60;;
33826;SDS011;20128;45.582;5.298;2023-08-30T04:08:56;4.45;;;2.30;;
33826;SDS011;20128;45.582;5.298;2023-08-30T04:11:22;4.65;;;2.78;;
33826;SDS011;20128;45.582;5.298;2023-08-30T04:13:48;4.78;;;2.20;;
33826;SDS011;20128;45.582;5.298;2023-08-30T04:16:13;4.32;;;1.92;;
33826;SDS011;20128;45.582;5.298;2023-08-30T04:18:39;3.95;;;2.25;;
33826;SDS011;20128;45.582;5.298;2023-08-30T04:21:05;3.95;;;2.38;;
33826;SDS011;20128;45.582;5.298;2023-08-30T04:23:32;5.60;;;1.88;;
33826;SDS011;20128;45.582;5.298;2023-08-30T04:25:58;6.53;;;2.05;;
33826;SDS011;20128;45.582;5.298;2023-08-30T04:28:23;16.40;;;2.10;;
33826;SDS011;20128;45.582;5.298;2023-08-30T04:30:53;5.78;;;1.60;;
33826;SDS011;20128;45.582;5.298;2023-08-30T04:33:19;4.85;;;1.95;;
33826;SDS011;20128;45.582;5.298;2023-08-30T04:35:49;2.08;;;1.40;;
33826;SDS011;20128;45.582;5.298;2023-08-30T04:38:19;3.72;;;1.85;;
33826;SDS011;20128;45.582;5.298;2023-08-30T04:40:45;3.92;;;1.80;;
33826;SDS011;20128;45.582;5.298;2023-08-30T04:43:11;7.38;;;2.15;;
33826;SDS011;20128;45.582;5.298;2023-08-30T04:45:37;3.20;;;1.70;;
33826;SDS011;20128;45.582;5.298;2023-08-30T04:48:03;4.18;;;2.08;;
33826;SDS011;20128;45.582;5.298;2023-08-30T04:50:29;3.70;;;1.80;;
33826;SDS011;20128;45.582;5.298;2023-08-30T04:52:55;4.93;;;2.00;;
33826;SDS011;20128;45.582;5.298;2023-08-30T04:55:21;5.93;;;2.35;;
33826;SDS011;20128;45.582;5.298;2023-08-30T04:57:48;6.97;;;1.98;;
33826;SDS011;20128;45.582;5.298;2023-08-30T05:00:14;3.20;;;1.73;;
33826;SDS011;20128;45.582;5.298;2023-08-30T05:02:40;5.25;;;2.28;;
33826;SDS011;20128;45.582;5.298;2023-08-30T05:05:08;8.20;;;1.98;;
33826;SDS011;20128;45.582;5.298;2023-08-30T05:07:34;7.88;;;2.80;;
33826;SDS011;20128;45.582;5.298;2023-08-30T05:10:00;5.32;;;2.17;;
33826;SDS011;20128;45.582;5.298;2023-08-30T05:12:26;6.47;;;2.55;;
33826;SDS011;20128;45.582;5.298;2023-08-30T05:14:51;4.00;;;2.10;;
33826;SDS011;20128;45.582;5.298;2023-08-30T05:17:17;4.43;;;2.13;;
33826;SDS011;20128;45.582;5.298;2023-08-30T05:19:43;5.35;;;2.15;;
33826;SDS011;20128;45.582;5.298;2023-08-30T05:22:08;14.15;;;2.70;;
33826;SDS011;20128;45.582;5.298;2023-08-30T05:24:34;7.97;;;1.88;;
33826;SDS011;20128;45.582;5.298;2023-08-30T05:26:59;2.58;;;1.73;;
33826;SDS011;20128;45.582;5.298;2023-08-30T05:29:25;9.93;;;2.28;;
33826;SDS011;20128;45.582;5.298;2023-08-30T05:31:51;3.65;;;2.28;;
33826;SDS011;20128;45.582;5.298;2023-08-30T05:34:16;5.10;;;2.05;;
33826;SDS011;20128;45.582;5.298;2023-08-30T05:36:42;5.05;;;1.70;;
33826;SDS011;20128;45.582;5.298;2023-08-30T05:39:08;5.35;;;2.00;;
33826;SDS011;20128;45.582;5.298;2023-08-30T05:41:33;4.00;;;2.42;;
33826;SDS011;20128;45.582;5.298;2023-08-30T05:43:59;4.53;;;1.75;;
33826;SDS011;20128;45.582;5.298;2023-08-30T05:46:25;3.42;;;1.80;;
33826;SDS011;20128;45.582;5.298;2023-08-30T05:48:50;7.22;;;2.53;;
33826;SDS011;20128;45.582;5.298;2023-08-30T05:51:16;4.72;;;1.55;;
33826;SDS011;20128;45.582;5.298;2023-08-30T05:53:42;3.83;;;1.98;;
33826;SDS011;20128;45.582;5.298;2023-08-30T05:56:07;4.22;;;2.50;;
33826;SDS011;20128;45.582;5.298;2023-08-30T05:58:33;6.28;;;2.05;;
33826;SDS011;20128;45.582;5.298;2023-08-30T06:00:58;9.07;;;2.50;;
33826;SDS011;20128;45.582;5.298;2023-08-30T06:03:25;3.97;;;2.15;;
33826;SDS011;20128;45.582;5.298;2023-08-30T06:05:51;5.53;;;2.25;;
33826;SDS011;20128;45.582;5.298;2023-08-30T06:08:16;5.95;;;2.20;;
33826;SDS011;20128;45.582;5.298;2023-08-30T06:10:43;3.20;;;1.92;;
33826;SDS011;20128;45.582;5.298;2023-08-30T06:13:08;8.85;;;2.13;;
33826;SDS011;20128;45.582;5.298;2023-08-30T06:15:35;7.80;;;2.58;;
33826;SDS011;20128;45.582;5.298;2023-08-30T06:18:02;2.67;;;1.60;;
33826;SDS011;20128;45.582;5.298;2023-08-30T06:20:28;3.08;;;2.30;;
33826;SDS011;20128;45.582;5.298;2023-08-30T06:22:54;7.72;;;3.55;;
33826;SDS011;20128;45.582;5.298;2023-08-30T06:25:19;11.13;;;4.30;;
33826;SDS011;20128;45.582;5.298;2023-08-30T06:27:54;3.80;;;2.38;;
33826;SDS011;20128;45.582;5.298;2023-08-30T06:30:22;4.38;;;2.75;;
33826;SDS011;20128;45.582;5.298;2023-08-30T06:32:48;6.07;;;2.75;;
33826;SDS011;20128;45.582;5.298;2023-08-30T06:35:14;7.72;;;3.92;;
33826;SDS011;20128;45.582;5.298;2023-08-30T06:37:40;8.63;;;2.53;;
33826;SDS011;20128;45.582;5.298;2023-08-30T06:40:06;10.30;;;4.05;;
33826;SDS011;20128;45.582;5.298;2023-08-30T06:42:32;12.35;;;4.75;;
33826;SDS011;20128;45.582;5.298;2023-08-30T06:44:57;5.63;;;2.90;;
33826;SDS011;20128;45.582;5.298;2023-08-30T06:47:23;7.90;;;3.15;;
33826;SDS011;20128;45.582;5.298;2023-08-30T06:49:49;7.30;;;4.07;;
33826;SDS011;20128;45.582;5.298;2023-08-30T06:52:14;7.55;;;3.35;;
33826;SDS011;20128;45.582;5.298;2023-08-30T06:54:40;6.10;;;3.55;;
33826;SDS011;20128;45.582;5.298;2023-08-30T06:57:05;6.75;;;4.85;;
33826;SDS011;20128;45.582;5.298;2023-08-30T06:59:32;8.63;;;4.63;;
33826;SDS011;20128;45.582;5.298;2023-08-30T07:01:58;6.88;;;3.22;;
33826;SDS011;20128;45.582;5.298;2023-08-30T07:04:23;7.75;;;4.30;;
33826;SDS011;20128;45.582;5.298;2023-08-30T07:06:49;8.40;;;4.78;;
33826;SDS011;20128;45.582;5.298;2023-08-30T07:09:15;11.15;;;4.85;;
33826;SDS011;20128;45.582;5.298;2023-08-30T07:11:42;11.43;;;4.88;;
33826;SDS011;20128;45.582;5.298;2023-08-30T07:14:11;5.70;;;4.05;;
33826;SDS011;20128;45.582;5.298;2023-08-30T07:16:37;17.25;;;5.82;;
33826;SDS011;20128;45.582;5.298;2023-08-30T07:19:03;12.77;;;7.28;;
33826;SDS011;20128;45.582;5.298;2023-08-30T07:21:29;11.98;;;6.55;;
33826;SDS011;20128;45.582;5.298;2023-08-30T07:23:54;15.15;;;6.57;;
33826;SDS011;20128;45.582;5.298;2023-08-30T07:26:20;9.15;;;6.78;;
33826;SDS011;20128;45.582;5.298;2023-08-30T07:28:46;12.18;;;8.45;;
33826;SDS011;20128;45.582;5.298;2023-08-30T07:31:11;14.63;;;9.50;;
33826;SDS011;20128;45.582;5.298;2023-08-30T07:33:40;11.52;;;7.07;;
33826;SDS011;20128;45.582;5.298;2023-08-30T07:36:06;12.48;;;7.30;;
33826;SDS011;20128;45.582;5.298;2023-08-30T07:38:33;7.82;;;5.90;;
33826;SDS011;20128;45.582;5.298;2023-08-30T07:41:00;10.55;;;7.70;;
33826;SDS011;20128;45.582;5.298;2023-08-30T07:43:25;10.32;;;7.43;;
33826;SDS011;20128;45.582;5.298;2023-08-30T07:45:51;11.50;;;8.20;;
33826;SDS011;20128;45.582;5.298;2023-08-30T07:48:17;11.52;;;7.55;;
33826;SDS011;20128;45.582;5.298;2023-08-30T07:50:42;15.77;;;7.78;;
33826;SDS011;20128;45.582;5.298;2023-08-30T07:53:08;10.50;;;6.90;;
33826;SDS011;20128;45.582;5.298;2023-08-30T07:55:35;9.45;;;7.05;;
33826;SDS011;20128;45.582;5.298;2023-08-30T07:58:01;11.07;;;7.50;;
33826;SDS011;20128;45.582;5.298;2023-08-30T08:00:28;10.02;;;6.15;;
33826;SDS011;20128;45.582;5.298;2023-08-30T08:02:54;10.38;;;6.10;;
33826;SDS011;20128;45.582;5.298;2023-08-30T08:05:20;9.70;;;6.78;;
33826;SDS011;20128;45.582;5.298;2023-08-30T08:07:45;6.90;;;5.68;;
33826;SDS011;20128;45.582;5.298;2023-08-30T08:10:15;10.65;;;6.25;;
33826;SDS011;20128;45.582;5.298;2023-08-30T08:12:41;9.20;;;5.75;;
33826;SDS011;20128;45.582;5.298;2023-08-30T08:15:06;13.95;;;7.07;;
33826;SDS011;20128;45.582;5.298;2023-08-30T08:17:32;15.27;;;5.72;;
33826;SDS011;20128;45.582;5.298;2023-08-30T08:19:58;13.55;;;5.88;;
33826;SDS011;20128;45.582;5.298;2023-08-30T08:22:23;13.00;;;6.05;;
33826;SDS011;20128;45.582;5.298;2023-08-30T08:24:49;12.98;;;5.80;;
33826;SDS011;20128;45.582;5.298;2023-08-30T08:27:16;9.65;;;5.82;;
33826;SDS011;20128;45.582;5.298;2023-08-30T08:29:42;12.90;;;6.15;;
33826;SDS011;20128;45.582;5.298;2023-08-30T08:32:08;7.55;;;5.38;;
33826;SDS011;20128;45.582;5.298;2023-08-30T08:34:33;9.70;;;5.03;;
33826;SDS011;20128;45.582;5.298;2023-08-30T08:36:59;13.32;;;5.47;;
33826;SDS011;20128;45.582;5.298;2023-08-30T08:39:25;6.88;;;5.47;;
33826;SDS011;20128;45.582;5.298;2023-08-30T08:41:50;11.10;;;5.38;;
33826;SDS011;20128;45.582;5.298;2023-08-30T08:44:20;11.55;;;5.93;;
33826;SDS011;20128;45.582;5.298;2023-08-30T08:46:47;8.48;;;5.00;;
33826;SDS011;20128;45.582;5.298;2023-08-30T08:49:14;5.22;;;3.70;;
33826;SDS011;20128;45.582;5.298;2023-08-30T08:51:41;6.72;;;5.05;;
33826;SDS011;20128;45.582;5.298;2023-08-30T08:54:08;8.32;;;4.10;;
33826;SDS011;20128;45.582;5.298;2023-08-30T08:56:35;7.05;;;3.40;;
33826;SDS011;20128;45.582;5.298;2023-08-30T08:59:01;4.22;;;3.30;;
33826;SDS011;20128;45.582;5.298;2023-08-30T09:01:27;10.05;;;3.40;;
33826;SDS011;20128;45.582;5.298;2023-08-30T09:03:53;5.30;;;3.55;;
33826;SDS011;20128;45.582;5.298;2023-08-30T09:06:19;3.40;;;2.70;;
33826;SDS011;20128;45.582;5.298;2023-08-30T09:08:46;6.30;;;3.00;;
33826;SDS011;20128;45.582;5.298;2023-08-30T09:11:12;7.50;;;3.53;;
33826;SDS011;20128;45.582;5.298;2023-08-30T09:13:38;5.60;;;3.80;;
33826;SDS011;20128;45.582;5.298;2023-08-30T09:16:11;7.50;;;3.30;;
33826;SDS011;20128;45.582;5.298;2023-08-30T09:18:43;5.55;;;3.15;;
33826;SDS011;20128;45.582;5.298;2023-08-30T09:21:09;8.38;;;2.85;;
33826;SDS011;20128;45.582;5.298;2023-08-30T09:23:35;4.10;;;2.60;;
33826;SDS011;20128;45.582;5.298;2023-08-30T09:26:02;3.20;;;2.08;;
33826;SDS011;20128;45.582;5.298;2023-08-30T09:28:28;5.85;;;2.17;;
33826;SDS011;20128;45.582;5.298;2023-08-30T09:30:56;8.63;;;3.17;;
33826;SDS011;20128;45.582;5.298;2023-08-30T09:33:23;3.22;;;2.20;;
33826;SDS011;20128;45.582;5.298;2023-08-30T09:35:55;3.53;;;2.50;;
33826;SDS011;20128;45.582;5.298;2023-08-30T09:38:21;4.90;;;2.08;;
33826;SDS011;20128;45.582;5.298;2023-08-30T09:40:47;7.63;;;2.75;;
33826;SDS011;20128;45.582;5.298;2023-08-30T09:43:13;4.97;;;2.90;;
33826;SDS011;20128;45.582;5.298;2023-08-30T09:45:39;7.18;;;3.08;;
33826;SDS011;20128;45.582;5.298;2023-08-30T09:48:06;4.38;;;2.60;;
33826;SDS011;20128;45.582;5.298;2023-08-30T09:50:33;4.60;;;2.10;;
33826;SDS011;20128;45.582;5.298;2023-08-30T09:53:01;8.63;;;2.28;;
33826;SDS011;20128;45.582;5.298;2023-08-30T09:55:33;6.72;;;3.05;;
33826;SDS011;20128;45.582;5.298;2023-08-30T09:58:00;4.82;;;2.30;;
33826;SDS011;20128;45.582;5.298;2023-08-30T10:00:29;4.82;;;2.50;;
33826;SDS011;20128;45.582;5.298;2023-08-30T10:02:55;8.02;;;2.60;;
33826;SDS011;20128;45.582;5.298;2023-08-30T10:05:23;3.33;;;2.20;;
33826;SDS011;20128;45.582;5.298;2023-08-30T10:07:50;4.47;;;2.00;;
33826;SDS011;20128;45.582;5.298;2023-08-30T10:10:17;3.90;;;2.25;;
33826;SDS011;20128;45.582;5.298;2023-08-30T10:12:45;6.35;;;2.30;;
33826;SDS011;20128;45.582;5.298;2023-08-30T10:15:11;2.83;;;2.20;;
33826;SDS011;20128;45.582;5.298;2023-08-30T10:17:37;6.00;;;2.28;;
33826;SDS011;20128;45.582;5.298;2023-08-30T10:20:06;6.28;;;2.13;;
33826;SDS011;20128;45.582;5.298;2023-08-30T10:22:34;3.13;;;2.05;;
33826;SDS011;20128;45.582;5.298;2023-08-30T10:25:05;2.92;;;1.73;;
33826;SDS011;20128;45.582;5.298;2023-08-30T10:27:33;3.17;;;1.98;;
33826;SDS011;20128;45.582;5.298;2023-08-30T10:30:02;3.15;;;2.05;;
33826;SDS011;20128;45.582;5.298;2023-08-30T10:32:30;3.20;;;1.83;;
33826;SDS011;20128;45.582;5.298;2023-08-30T10:35:00;3.67;;;1.85;;
33826;SDS011;20128;45.582;5.298;2023-08-30T10:37:28;4.20;;;1.80;;
33826;SDS011;20128;45.582;5.298;2023-08-30T10:39:59;2.35;;;1.80;;
33826;SDS011;20128;45.582;5.298;2023-08-30T10:44:58;4.40;;;2.17;;
33826;SDS011;20128;45.582;5.298;2023-08-30T10:47:28;3.80;;;2.83;;
33826;SDS011;20128;45.582;5.298;2023-08-30T10:49:56;2.38;;;2.15;;
33826;SDS011;20128;45.582;5.298;2023-08-30T10:52:22;4.18;;;2.20;;
33826;SDS011;20128;45.582;5.298;2023-08-30T10:54:49;4.60;;;2.20;;
33826;SDS011;20128;45.582;5.298;2023-08-30T10:57:18;4.45;;;2.33;;
33826;SDS011;20128;45.582;5.298;2023-08-30T11:00:06;5.30;;;2.30;;
33826;SDS011;20128;45.582;5.298;2023-08-30T11:02:36;4.78;;;1.98;;
33826;SDS011;20128;45.582;5.298;2023-08-30T11:05:03;12.57;;;1.92;;
33826;SDS011;20128;45.582;5.298;2023-08-30T11:07:33;5.85;;;1.65;;
33826;SDS011;20128;45.582;5.298;2023-08-30T11:09:59;5.13;;;1.77;;
33826;SDS011;20128;45.582;5.298;2023-08-30T11:12:24;5.10;;;1.73;;
33826;SDS011;20128;45.582;5.298;2023-08-30T11:14:51;5.93;;;2.45;;
33826;SDS011;20128;45.582;5.298;2023-08-30T11:17:18;3.20;;;1.50;;
33826;SDS011;20128;45.582;5.298;2023-08-30T11:19:44;3.17;;;2.13;;
33826;SDS011;20128;45.582;5.298;2023-08-30T11:22:10;2.40;;;1.83;;
33826;SDS011;20128;45.582;5.298;2023-08-30T11:24:37;7.22;;;2.03;;
33826;SDS011;20128;45.582;5.298;2023-08-30T11:27:03;4.10;;;1.75;;
33826;SDS011;20128;45.582;5.298;2023-08-30T11:29:29;3.05;;;1.65;;
33826;SDS011;20128;45.582;5.298;2023-08-30T11:31:55;3.80;;;1.58;;
33826;SDS011;20128;45.582;5.298;2023-08-30T11:34:20;2.65;;;1.75;;
33826;SDS011;20128;45.582;5.298;2023-08-30T11:36:49;5.75;;;2.13;;
33826;SDS011;20128;45.582;5.298;2023-08-30T11:39:16;1.92;;;1.45;;
33826;SDS011;20128;45.582;5.298;2023-08-30T11:41:42;4.95;;;1.60;;
33826;SDS011;20128;45.582;5.298;2023-08-30T11:44:08;4.03;;;1.88;;
33826;SDS011;20128;45.582;5.298;2023-08-30T11:46:34;2.78;;;1.55;;
33826;SDS011;20128;45.582;5.298;2023-08-30T11:49:00;8.55;;;1.70;;
33826;SDS011;20128;45.582;5.298;2023-08-30T11:51:27;6.30;;;2.00;;
33826;SDS011;20128;45.582;5.298;2023-08-30T11:53:54;2.72;;;1.63;;
33826;SDS011;20128;45.582;5.298;2023-08-30T11:56:21;2.15;;;1.42;;
33826;SDS011;20128;45.582;5.298;2023-08-30T11:58:47;3.78;;;1.25;;
33826;SDS011;20128;45.582;5.298;2023-08-30T12:01:13;4.45;;;1.52;;
33826;SDS011;20128;45.582;5.298;2023-08-30T12:03:39;3.42;;;1.45;;
33826;SDS011;20128;45.582;5.298;2023-08-30T12:06:11;1.98;;;1.55;;
33826;SDS011;20128;45.582;5.298;2023-08-30T12:08:39;2.72;;;1.50;;
33826;SDS011;20128;45.582;5.298;2023-08-30T12:11:05;4.53;;;2.40;;
33826;SDS011;20128;45.582;5.298;2023-08-30T12:13:33;2.30;;;1.60;;
33826;SDS011;20128;45.582;5.298;2023-08-30T12:16:00;2.63;;;1.48;;
33826;SDS011;20128;45.582;5.298;2023-08-30T12:18:27;3.13;;;1.73;;
33826;SDS011;20128;45.582;5.298;2023-08-30T12:21:00;3.25;;;1.65;;
33826;SDS011;20128;45.582;5.298;2023-08-30T12:23:27;4.00;;;1.77;;
33826;SDS011;20128;45.582;5.298;2023-08-30T12:28:26;5.47;;;1.67;;
33826;SDS011;20128;45.582;5.298;2023-08-30T12:30:53;2.55;;;1.30;;
33826;SDS011;20128;45.582;5.298;2023-08-30T12:33:19;2.70;;;1.42;;
33826;SDS011;20128;45.582;5.298;2023-08-30T12:35:45;2.67;;;1.40;;
33826;SDS011;20128;45.582;5.298;2023-08-30T12:38:10;4.43;;;1.70;;
33826;SDS011;20128;45.582;5.298;2023-08-30T12:40:45;2.50;;;1.50;;
33826;SDS011;20128;45.582;5.298;2023-08-30T12:43:12;6.43;;;1.60;;
33826;SDS011;20128;45.582;5.298;2023-08-30T12:45:39;4.30;;;1.60;;
33826;SDS011;20128;45.582;5.298;2023-08-30T12:48:06;2.60;;;1.40;;
33826;SDS011;20128;45.582;5.298;2023-08-30T12:50:36;5.47;;;1.35;;
33826;SDS011;20128;45.582;5.298;2023-08-30T12:53:02;2.03;;;1.30;;
33826;SDS011;20128;45.582;5.298;2023-08-30T12:55:29;3.78;;;1.70;;
33826;SDS011;20128;45.582;5.298;2023-08-30T12:57:54;3.17;;;1.35;;
33826;SDS011;20128;45.582;5.298;2023-08-30T13:00:20;5.15;;;1.58;;
33826;SDS011;20128;45.582;5.298;2023-08-30T13:02:46;1.65;;;1.30;;
33826;SDS011;20128;45.582;5.298;2023-08-30T13:05:12;3.78;;;1.20;;
33826;SDS011;20128;45.582;5.298;2023-08-30T13:07:37;2.22;;;1.58;;
33826;SDS011;20128;45.582;5.298;2023-08-30T13:10:04;3.63;;;1.33;;
33826;SDS011;20128;45.582;5.298;2023-08-30T13:12:31;3.95;;;1.40;;
33826;SDS011;20128;45.582;5.298;2023-08-30T13:14:56;3.92;;;1.27;;
33826;SDS011;20128;45.582;5.298;2023-08-30T13:17:22;1.73;;;1.00;;
33826;SDS011;20128;45.582;5.298;2023-08-30T13:19:48;1.55;;;1.13;;
33826;SDS011;20128;45.582;5.298;2023-08-30T13:22:14;2.35;;;1.15;;
33826;SDS011;20128;45.582;5.298;2023-08-30T13:24:40;4.70;;;1.45;;
33826;SDS011;20128;45.582;5.298;2023-08-30T13:27:05;3.10;;;1.52;;
33826;SDS011;20128;45.582;5.298;2023-08-30T13:29:31;4.90;;;1.60;;
33826;SDS011;20128;45.582;5.298;2023-08-30T13:31:57;5.03;;;1.60;;
33826;SDS011;20128;45.582;5.298;2023-08-30T13:34:22;4.57;;;1.35;;
33826;SDS011;20128;45.582;5.298;2023-08-30T13:36:48;1.65;;;1.23;;
33826;SDS011;20128;45.582;5.298;2023-08-30T13:39:14;1.88;;;1.42;;
33826;SDS011;20128;45.582;5.298;2023-08-30T13:41:40;1.63;;;1.52;;
33826;SDS011;20128;45.582;5.298;2023-08-30T13:44:06;3.53;;;1.40;;
33826;SDS011;20128;45.582;5.298;2023-08-30T13:46:31;2.63;;;1.50;;
33826;SDS011;20128;45.582;5.298;2023-08-30T13:48:57;2.92;;;1.40;;
33826;SDS011;20128;45.582;5.298;2023-08-30T13:51:23;3.33;;;1.67;;
33826;SDS011;20128;45.582;5.298;2023-08-30T13:53:50;3.70;;;1.48;;
33826;SDS011;20128;45.582;5.298;2023-08-30T13:56:16;2.95;;;1.85;;
33826;SDS011;20128;45.582;5.298;2023-08-30T13:58:42;4.85;;;1.70;;
33826;SDS011;20128;45.582;5.298;2023-08-30T14:01:08;2.75;;;1.42;;
33826;SDS011;20128;45.582;5.298;2023-08-30T14:03:34;2.88;;;1.85;;
33826;SDS011;20128;45.582;5.298;2023-08-30T14:05:59;2.75;;;1.55;;
33826;SDS011;20128;45.582;5.298;2023-08-30T14:08:25;2.75;;;1.60;;
33826;SDS011;20128;45.582;5.298;2023-08-30T14:10:51;2.85;;;1.70;;
33826;SDS011;20128;45.582;5.298;2023-08-30T14:13:16;3.95;;;1.60;;
33826;SDS011;20128;45.582;5.298;2023-08-30T14:15:42;2.75;;;1.67;;
33826;SDS011;20128;45.582;5.298;2023-08-30T14:18:08;3.50;;;1.65;;
33826;SDS011;20128;45.582;5.298;2023-08-30T14:20:34;9.82;;;1.73;;
33826;SDS011;20128;45.582;5.298;2023-08-30T14:22:59;3.72;;;1.30;;
33826;SDS011;20128;45.582;5.298;2023-08-30T14:25:25;2.60;;;1.40;;
33826;SDS011;20128;45.582;5.298;2023-08-30T14:27:51;2.00;;;1.38;;
33826;SDS011;20128;45.582;5.298;2023-08-30T14:30:16;2.83;;;1.63;;
33826;SDS011;20128;45.582;5.298;2023-08-30T14:32:42;4.57;;;1.70;;
33826;SDS011;20128;45.582;5.298;2023-08-30T14:35:08;4.75;;;1.40;;
33826;SDS011;20128;45.582;5.298;2023-08-30T14:37:33;3.08;;;1.52;;
33826;SDS011;20128;45.582;5.298;2023-08-30T14:40:01;3.80;;;1.48;;
33826;SDS011;20128;45.582;5.298;2023-08-30T14:42:29;7.80;;;1.88;;
33826;SDS011;20128;45.582;5.298;2023-08-30T14:44:55;3.05;;;1.92;;
33826;SDS011;20128;45.582;5.298;2023-08-30T14:47:21;3.53;;;1.75;;
33826;SDS011;20128;45.582;5.298;2023-08-30T14:49:46;3.72;;;1.77;;